createdAt,value
2023-02-04T01:32:41.773Z,3.42
2023-02-04T01:35:09.453Z,3.75
2023-02-04T01:37:36.925Z,2.88
2023-02-04T01:40:04.873Z,2.92
2023-02-04T01:42:32.565Z,2.63
2023-02-04T01:45:00.142Z,2.85
2023-02-04T01:47:27.776Z,3.60
2023-02-04T01:49:56.831Z,2.97
2023-02-04T01:52:24.693Z,3.50
2023-02-04T01:54:52.766Z,3.30
2023-02-04T01:57:20.255Z,3.30
2023-02-04T01:59:48.334Z,3.17
2023-02-04T02:02:30.794Z,3.50
2023-02-04T02:04:59.694Z,3.10
2023-02-04T02:07:27.184Z,3.45
2023-02-04T02:09:54.778Z,3.80
2023-02-04T02:12:22.275Z,3.15
2023-02-04T02:14:49.833Z,3.50
2023-02-04T02:17:17.525Z,3.30
2023-02-04T02:19:45.652Z,2.95
2023-02-04T02:22:17.842Z,3.72
2023-02-04T02:24:46.654Z,3.30
2023-02-04T02:27:14.573Z,2.95
2023-02-04T02:30:13.440Z,2.53
2023-02-04T02:32:42.209Z,2.42
2023-02-04T02:35:13.282Z,3.25
2023-02-04T02:37:40.805Z,2.83
2023-02-04T02:40:19.522Z,3.85
2023-02-04T02:42:50.064Z,3.15
2023-02-04T02:45:21.794Z,2.80
2023-02-04T02:47:49.589Z,2.88
2023-02-04T02:50:18.483Z,3.00
2023-02-04T02:52:45.974Z,2.63
2023-02-04T02:55:16.370Z,3.67
2023-02-04T02:57:47.421Z,2.90
2023-02-04T03:00:15.907Z,3.58
2023-02-04T03:02:43.688Z,3.13
2023-02-04T03:05:11.453Z,3.42
2023-02-04T03:07:43.830Z,3.40
2023-02-04T03:10:11.632Z,2.63
2023-02-04T03:12:40.626Z,3.42
2023-02-04T03:15:08.426Z,2.75
2023-02-04T03:17:35.960Z,3.22
2023-02-04T03:20:03.786Z,2.90
2023-02-04T03:22:31.467Z,3.58
2023-02-04T03:24:59.393Z,3.13
2023-02-04T03:27:26.924Z,2.92
2023-02-04T03:29:55.826Z,3.60
2023-02-04T03:32:23.354Z,3.13
2023-02-04T03:34:50.929Z,3.10
2023-02-04T03:37:18.407Z,3.55
2023-02-04T03:39:45.920Z,3.40
2023-02-04T03:42:13.438Z,2.70
2023-02-04T03:44:40.944Z,2.88
2023-02-04T03:47:09.826Z,3.17
2023-02-04T03:49:37.333Z,2.50
2023-02-04T03:52:05.115Z,3.17
2023-02-04T03:54:32.623Z,2.83
2023-02-04T03:57:00.130Z,2.83
2023-02-04T03:59:27.751Z,3.47
2023-02-04T04:01:55.352Z,2.80
2023-02-04T04:04:24.346Z,2.80
2023-02-04T04:06:51.864Z,2.78
2023-02-04T04:09:19.397Z,3.55
2023-02-04T04:11:46.965Z,2.83
2023-02-04T04:14:14.523Z,2.78
2023-02-04T04:16:43.147Z,3.40
2023-02-04T04:19:10.823Z,3.53
2023-02-04T04:21:41.919Z,2.95
2023-02-04T04:24:09.477Z,2.50
2023-02-04T04:26:37.006Z,3.08
2023-02-04T04:29:04.581Z,3.20
2023-02-04T04:31:32.197Z,3.22
2023-02-04T04:33:59.879Z,2.70
2023-02-04T04:36:27.361Z,3.13
2023-02-04T04:38:56.247Z,3.10
2023-02-04T04:41:26.084Z,2.70
2023-02-04T04:43:53.555Z,3.08
2023-02-04T04:46:21.203Z,3.08
2023-02-04T04:48:51.570Z,3.22
2023-02-04T04:51:19.002Z,3.03
2023-02-04T04:53:46.526Z,2.45
2023-02-04T04:56:15.519Z,3.05
2023-02-04T04:58:43.085Z,2.72
2023-02-04T05:01:12.854Z,3.40
2023-02-04T05:03:40.463Z,3.33
2023-02-04T05:06:09.172Z,3.30
2023-02-04T05:08:38.084Z,3.22
2023-02-04T05:11:05.773Z,3.35
2023-02-04T05:13:34.653Z,3.90
2023-02-04T05:16:02.170Z,3.50
2023-02-04T05:18:29.736Z,3.65
2023-02-04T05:20:57.334Z,3.72
2023-02-04T05:23:24.991Z,3.08
2023-02-04T05:25:54.905Z,3.17
2023-02-04T05:28:22.477Z,3.83
2023-02-04T05:30:51.466Z,4.63
2023-02-04T05:33:21.506Z,4.35
2023-02-04T05:35:49.965Z,4.50
2023-02-04T05:38:17.650Z,3.60
2023-02-04T05:40:45.243Z,4.50
2023-02-04T05:43:12.762Z,4.65
2023-02-04T05:45:40.267Z,4.43
2023-02-04T05:48:09.210Z,4.03
2023-02-04T05:50:38.298Z,4.68
2023-02-04T05:53:06.152Z,4.25
2023-02-04T05:55:33.798Z,4.75
2023-02-04T05:58:01.288Z,3.65
2023-02-04T06:00:28.953Z,4.47
2023-02-04T06:02:57.556Z,4.03
2023-02-04T06:05:26.720Z,4.45
2023-02-04T06:07:54.237Z,4.32
2023-02-04T06:10:24.756Z,4.55
2023-02-04T06:12:55.010Z,4.28
2023-02-04T06:15:22.574Z,4.45
2023-02-04T06:17:50.121Z,4.00
2023-02-04T06:20:22.690Z,3.63
2023-02-04T06:22:55.295Z,4.40
2023-02-04T06:25:23.027Z,3.55
2023-02-04T06:27:50.574Z,4.40
2023-02-04T06:30:22.856Z,3.95
2023-02-04T06:32:50.376Z,3.92
2023-02-04T06:35:17.925Z,3.75
2023-02-04T06:37:45.924Z,4.30
2023-02-04T06:40:15.036Z,4.15
2023-02-04T06:42:42.551Z,4.35
2023-02-04T06:45:10.425Z,5.07
2023-02-04T06:47:37.977Z,3.67
2023-02-04T06:50:05.639Z,4.28
2023-02-04T06:52:35.260Z,4.13
2023-02-04T06:55:03.074Z,4.10
2023-02-04T06:57:34.813Z,4.18
2023-02-04T07:00:02.446Z,4.80
2023-02-04T07:02:29.974Z,4.03
2023-02-04T07:04:57.490Z,3.83
2023-02-04T07:07:25.190Z,3.70
2023-02-04T07:09:52.816Z,3.88
2023-02-04T07:12:20.342Z,3.42
2023-02-04T07:14:49.361Z,4.13
2023-02-04T07:17:16.874Z,3.95
2023-02-04T07:19:44.397Z,4.20
2023-02-04T07:22:11.976Z,2.97
2023-02-04T07:24:39.564Z,3.60
2023-02-04T07:27:07.276Z,3.50
2023-02-04T07:29:34.793Z,3.78
2023-02-04T07:32:03.816Z,3.03
2023-02-04T07:34:31.392Z,2.85
2023-02-04T07:36:59.019Z,3.45
2023-02-04T07:39:27.391Z,3.80
2023-02-04T07:41:54.952Z,3.05
2023-02-04T07:44:22.412Z,2.88
2023-02-04T07:46:49.965Z,3.25
2023-02-04T07:49:18.921Z,3.83
2023-02-04T07:51:46.455Z,2.70
2023-02-04T07:54:14.440Z,2.45
2023-02-04T07:56:42.022Z,1.95
2023-02-04T07:59:09.488Z,2.95
2023-02-04T08:01:38.352Z,2.50
2023-02-04T08:04:06.081Z,2.85
2023-02-04T08:06:35.447Z,2.53
2023-02-04T08:09:03.157Z,2.30
2023-02-04T08:11:31.418Z,2.55
2023-02-04T08:13:59.039Z,2.60
2023-02-04T08:16:26.644Z,2.70
2023-02-04T08:18:54.230Z,2.30
2023-02-04T08:21:21.719Z,2.60
2023-02-04T08:23:50.560Z,2.45
2023-02-04T08:26:18.463Z,1.95
2023-02-04T08:28:46.006Z,2.80
2023-02-04T08:31:13.705Z,2.85
2023-02-04T08:33:41.314Z,2.80
2023-02-04T08:36:09.175Z,2.42
2023-02-04T08:38:36.755Z,2.78
2023-02-04T08:41:06.482Z,2.95
2023-02-04T08:43:34.038Z,3.30
2023-02-04T08:46:01.605Z,2.53
2023-02-04T08:48:29.198Z,2.47
2023-02-04T08:50:56.825Z,3.10
2023-02-04T08:53:24.458Z,2.60
2023-02-04T08:55:51.960Z,2.60
2023-02-04T08:58:20.810Z,3.08
2023-02-04T09:00:48.501Z,2.70
2023-02-04T09:03:16.175Z,2.10
2023-02-04T09:05:43.675Z,2.80
2023-02-04T09:08:11.634Z,2.35
2023-02-04T09:10:39.285Z,2.55
2023-02-04T09:13:09.230Z,3.05
2023-02-04T09:15:38.695Z,2.13
2023-02-04T09:18:14.682Z,2.40
2023-02-04T09:20:42.227Z,2.20
2023-02-04T09:23:12.035Z,2.55
2023-02-04T09:25:40.049Z,2.63
2023-02-04T09:28:10.078Z,2.22
2023-02-04T09:30:39.099Z,2.72
2023-02-04T09:33:06.604Z,2.50
2023-02-04T09:35:34.181Z,2.80
2023-02-04T09:38:03.208Z,5.47
2023-02-04T09:40:32.518Z,5.88
2023-02-04T09:43:00.321Z,3.53
2023-02-04T09:45:29.102Z,2.85
2023-02-04T09:47:59.452Z,3.00
2023-02-04T09:50:30.441Z,2.58
2023-02-04T09:52:59.739Z,2.95
2023-02-04T09:55:29.712Z,2.40
2023-02-04T09:57:57.299Z,2.97
2023-02-04T10:00:26.383Z,3.45
2023-02-04T10:02:54.066Z,2.92
2023-02-04T10:05:28.472Z,2.33
2023-02-04T10:07:58.242Z,2.50
2023-02-04T10:10:27.263Z,2.85
2023-02-04T10:12:57.120Z,2.90
2023-02-04T10:15:24.786Z,2.88
2023-02-04T10:17:53.556Z,3.05
2023-02-04T10:20:21.842Z,2.80
2023-02-04T10:22:52.477Z,3.00
2023-02-04T10:25:20.990Z,3.10
2023-02-04T10:27:49.563Z,3.17
2023-02-04T10:30:22.655Z,3.10
2023-02-04T10:32:51.527Z,2.70
2023-02-04T10:35:21.260Z,3.25
2023-02-04T10:37:49.463Z,2.60
2023-02-04T10:40:32.119Z,3.15
2023-02-04T10:43:00.406Z,3.00
2023-02-04T10:45:31.525Z,2.83
2023-02-04T10:47:59.123Z,3.60
2023-02-04T10:50:33.623Z,2.90
2023-02-04T10:53:15.725Z,3.35
2023-02-04T10:55:53.066Z,3.45
2023-02-04T10:58:32.175Z,3.33
2023-02-04T11:01:01.157Z,3.97
2023-02-04T11:03:32.332Z,4.07
2023-02-04T11:06:01.617Z,3.53
2023-02-04T11:08:31.238Z,4.18
2023-02-04T11:11:01.411Z,2.90
2023-02-04T11:13:44.348Z,3.20
2023-02-04T11:16:13.720Z,3.10
2023-02-04T11:18:48.518Z,2.83
2023-02-04T11:21:23.589Z,3.22
2023-02-04T11:23:51.097Z,3.45
2023-02-04T11:26:22.768Z,2.90
2023-02-04T11:28:58.168Z,2.67
2023-02-04T11:31:31.580Z,2.40
2023-02-04T11:34:22.605Z,2.47
2023-02-04T11:37:05.556Z,2.00
2023-02-04T11:39:35.006Z,2.08
2023-02-04T11:42:04.400Z,2.20
2023-02-04T11:44:32.442Z,2.03
2023-02-04T11:47:02.884Z,2.05
2023-02-04T11:49:31.502Z,2.85
2023-02-04T11:52:08.712Z,2.63
2023-02-04T11:54:37.065Z,3.00
2023-02-04T11:57:06.217Z,2.65
2023-02-04T11:59:36.538Z,2.80
2023-02-04T12:02:05.316Z,3.15
2023-02-04T12:04:32.958Z,3.13
2023-02-04T12:07:01.376Z,2.85
2023-02-04T12:09:30.567Z,3.17
2023-02-04T12:11:59.696Z,3.08
2023-02-04T12:14:32.725Z,3.25
2023-02-04T12:17:00.468Z,3.15
2023-02-04T12:19:28.057Z,2.85
2023-02-04T12:21:55.958Z,2.72
2023-02-04T12:24:23.665Z,2.55
2023-02-04T12:26:51.820Z,2.90
2023-02-04T12:29:19.398Z,3.22
2023-02-04T12:31:48.665Z,2.60
2023-02-04T12:34:17.410Z,2.53
2023-02-04T12:36:44.977Z,2.80
2023-02-04T12:39:12.484Z,3.33
2023-02-04T12:41:40.835Z,2.78
2023-02-04T12:44:08.554Z,2.72
2023-02-04T12:46:36.366Z,3.00
2023-02-04T12:49:08.855Z,2.47
2023-02-04T12:51:37.296Z,2.77
2023-02-04T12:54:05.937Z,4.57
2023-02-04T12:56:34.739Z,2.88
2023-02-04T12:59:04.347Z,2.30
2023-02-04T13:01:32.011Z,3.30
2023-02-04T13:03:59.541Z,2.00
2023-02-04T13:06:28.910Z,2.53
2023-02-04T13:08:58.111Z,2.58
2023-02-04T13:11:25.654Z,2.40
2023-02-04T13:13:53.248Z,2.13
2023-02-04T13:16:23.184Z,2.50
2023-02-04T13:18:50.865Z,2.38
2023-02-04T13:21:18.433Z,2.90
2023-02-04T13:23:47.386Z,2.17
2023-02-04T13:26:15.026Z,2.20
2023-02-04T13:28:42.588Z,2.20
2023-02-04T13:31:10.135Z,2.25
2023-02-04T13:33:37.843Z,2.28
2023-02-04T13:36:05.833Z,2.03
2023-02-04T13:38:33.324Z,2.13
2023-02-04T13:41:02.465Z,2.33
2023-02-04T13:44:07.241Z,2.78
2023-02-04T13:46:35.122Z,1.60
2023-02-04T13:49:02.942Z,1.95
2023-02-04T13:51:30.944Z,1.90
2023-02-04T13:54:00.560Z,1.90
2023-02-04T13:56:30.949Z,2.78
2023-02-04T13:58:58.562Z,2.83
2023-02-04T14:01:26.528Z,2.03
2023-02-04T14:03:54.206Z,2.35
2023-02-04T14:06:22.168Z,2.08
2023-02-04T14:08:49.908Z,1.60
2023-02-04T14:11:20.522Z,1.98
2023-02-04T14:13:49.478Z,1.75
2023-02-04T14:16:17.247Z,1.65
2023-02-04T14:18:44.868Z,1.98
2023-02-04T14:21:12.388Z,1.88
2023-02-04T14:23:40.054Z,2.00
2023-02-04T14:26:07.740Z,1.42
2023-02-04T14:28:35.314Z,1.80
2023-02-04T14:31:05.045Z,1.75
2023-02-04T14:33:33.070Z,1.63
2023-02-04T14:36:00.745Z,1.95
2023-02-04T14:38:30.950Z,1.80
2023-02-04T14:40:58.975Z,1.80
2023-02-04T14:43:26.615Z,1.50
2023-02-04T14:45:54.297Z,1.90
2023-02-04T14:48:23.445Z,1.88
2023-02-04T14:50:51.247Z,2.00
2023-02-04T14:53:18.771Z,2.22
2023-02-04T14:55:46.341Z,2.15
2023-02-04T14:58:13.888Z,2.58
2023-02-04T15:00:41.455Z,2.50
2023-02-04T15:03:11.083Z,2.45
2023-02-04T15:05:39.951Z,2.40
2023-02-04T15:08:07.852Z,2.50
2023-02-04T15:10:35.401Z,2.95
2023-02-04T15:13:03.120Z,2.17
2023-02-04T15:15:31.255Z,2.35
2023-02-04T15:17:58.786Z,1.95
2023-02-04T15:20:26.501Z,2.35
2023-02-04T15:22:56.482Z,2.30
2023-02-04T15:25:24.120Z,2.20
2023-02-04T15:27:51.811Z,2.78
2023-02-04T15:30:19.555Z,4.82
2023-02-04T15:32:47.181Z,2.53
2023-02-04T15:35:17.545Z,2.70
2023-02-04T15:37:45.077Z,2.75
2023-02-04T15:40:14.598Z,5.60
2023-02-04T15:42:43.209Z,2.92
2023-02-04T15:45:14.038Z,2.90
2023-02-04T15:47:41.589Z,3.25
2023-02-04T15:50:11.083Z,3.75
2023-02-04T15:52:39.072Z,3.67
2023-02-04T15:55:15.926Z,3.70
2023-02-04T15:57:47.130Z,3.22
2023-02-04T16:00:15.305Z,3.40
2023-02-04T16:02:45.293Z,2.92
2023-02-04T16:05:15.357Z,4.32
2023-02-04T16:07:43.647Z,3.28
2023-02-04T16:10:12.728Z,3.58
2023-02-04T16:12:42.635Z,3.75
2023-02-04T16:15:13.747Z,3.83
2023-02-04T16:17:42.254Z,5.03
2023-02-04T16:20:12.119Z,3.70
2023-02-04T16:22:43.759Z,3.75
2023-02-04T16:25:11.773Z,3.97
2023-02-04T16:27:39.374Z,3.80
2023-02-04T16:30:10.352Z,3.60
2023-02-04T16:32:39.405Z,3.88
2023-02-04T16:35:07.436Z,3.60
2023-02-04T16:37:37.869Z,3.67
2023-02-04T16:40:05.911Z,7.38
2023-02-04T16:42:34.121Z,4.38
2023-02-04T16:45:01.869Z,4.28
2023-02-04T16:47:29.469Z,4.20
2023-02-04T16:50:01.245Z,4.53
2023-02-04T16:52:29.313Z,3.90
2023-02-04T16:54:57.004Z,3.83
2023-02-04T16:57:24.928Z,4.50
2023-02-04T16:59:53.174Z,3.17
2023-02-04T17:02:24.331Z,3.30
2023-02-04T17:04:52.226Z,3.67
2023-02-04T17:07:21.134Z,3.40
2023-02-04T17:09:48.824Z,3.78
2023-02-04T17:12:18.626Z,3.58
2023-02-04T17:14:46.290Z,4.53
2023-02-04T17:17:13.920Z,4.07
2023-02-04T17:19:41.657Z,4.43
2023-02-04T17:22:09.237Z,4.20
2023-02-04T17:24:44.278Z,3.28
2023-02-04T17:27:12.245Z,5.55
2023-02-04T17:29:39.865Z,4.18
2023-02-04T17:32:08.711Z,4.50
2023-02-04T17:34:36.238Z,4.13
2023-02-04T17:37:03.871Z,4.22
2023-02-04T17:39:31.582Z,4.75
2023-02-04T17:42:00.753Z,4.45
2023-02-04T17:44:30.897Z,3.80
2023-02-04T17:46:59.247Z,4.30
2023-02-04T17:49:26.981Z,3.97
2023-02-04T17:51:54.669Z,4.57
2023-02-04T17:54:27.384Z,3.85
2023-02-04T17:56:57.045Z,4.32
2023-02-04T17:59:26.090Z,3.85
2023-02-04T18:01:54.538Z,4.47
2023-02-04T18:04:22.246Z,5.40
2023-02-04T18:06:51.352Z,4.90
2023-02-04T18:09:18.992Z,4.18
2023-02-04T18:11:52.536Z,5.18
2023-02-04T18:14:22.893Z,3.97
2023-02-04T18:16:51.955Z,3.92
2023-02-04T18:19:21.572Z,4.15
2023-02-04T18:21:49.395Z,4.03
2023-02-04T18:24:19.009Z,3.40
2023-02-04T18:26:47.815Z,4.30
2023-02-04T18:29:30.387Z,3.90
2023-02-04T18:32:00.947Z,3.55
2023-02-04T18:34:33.215Z,3.50
2023-02-04T18:37:01.933Z,3.50
2023-02-04T18:39:31.983Z,3.20
2023-02-04T18:42:05.741Z,2.72
2023-02-04T18:44:34.295Z,4.10
2023-02-04T18:47:06.227Z,3.78
2023-02-04T18:49:35.342Z,2.67
2023-02-04T18:52:08.292Z,3.10
2023-02-04T18:54:36.665Z,3.72
2023-02-04T18:57:28.920Z,3.35
2023-02-04T19:00:13.942Z,2.58
2023-02-04T19:02:43.705Z,2.92
2023-02-04T19:05:20.642Z,3.40
2023-02-04T19:07:48.298Z,3.53
2023-02-04T19:10:27.830Z,2.72
2023-02-04T19:12:59.820Z,2.35
2023-02-04T19:15:44.515Z,3.28
2023-02-04T19:18:24.313Z,2.90
2023-02-04T19:20:52.290Z,3.00
2023-02-04T19:23:21.208Z,3.08
2023-02-04T19:25:51.187Z,2.78
2023-02-04T19:28:29.369Z,3.15
2023-02-04T19:31:01.466Z,2.55
2023-02-04T19:33:33.362Z,2.40
2023-02-04T19:36:02.978Z,2.63
2023-02-04T19:38:35.452Z,3.03
2023-02-04T19:41:03.427Z,2.83
2023-02-04T19:43:36.217Z,2.67
2023-02-04T19:46:18.138Z,2.60
2023-02-04T19:48:47.400Z,3.10
2023-02-04T19:51:28.169Z,3.28
2023-02-04T19:53:59.433Z,2.80
2023-02-04T19:56:30.353Z,3.03
2023-02-04T19:58:58.180Z,2.88
2023-02-04T20:01:25.797Z,3.22
2023-02-04T20:03:54.711Z,2.38
2023-02-04T20:06:27.396Z,3.28
2023-02-04T20:09:02.674Z,2.40
2023-02-04T20:11:47.957Z,2.78
2023-02-04T20:14:26.610Z,3.03
2023-02-04T20:16:57.473Z,2.30
2023-02-04T20:19:34.407Z,2.28
2023-02-04T20:22:23.476Z,2.72
2023-02-04T20:24:52.423Z,2.40
2023-02-04T20:27:24.269Z,2.55
2023-02-04T20:29:53.980Z,2.80
2023-02-04T20:32:26.281Z,3.20
2023-02-04T20:35:00.591Z,2.70
2023-02-04T20:37:28.510Z,3.35
2023-02-04T20:39:56.041Z,2.30
2023-02-04T20:42:31.081Z,2.33
2023-02-04T20:45:03.512Z,2.75
2023-02-04T20:47:35.633Z,2.63
2023-02-04T20:50:24.685Z,2.20
2023-02-04T20:53:09.973Z,2.63
2023-02-04T20:55:37.654Z,2.20
2023-02-04T20:58:13.569Z,2.22
2023-02-04T21:00:42.405Z,2.25
2023-02-04T21:03:25.023Z,2.28
2023-02-04T21:05:59.035Z,2.33
2023-02-04T21:08:29.494Z,2.08
2023-02-04T21:10:57.643Z,2.05
2023-02-04T21:13:25.567Z,2.17
2023-02-04T21:15:53.545Z,1.98
2023-02-04T21:18:21.652Z,2.47
2023-02-04T21:20:49.234Z,1.85
2023-02-04T21:23:18.946Z,1.77
2023-02-04T21:25:46.649Z,1.70
2023-02-04T21:28:15.418Z,1.92
2023-02-04T21:30:43.680Z,1.75
2023-02-04T21:33:16.056Z,2.33
2023-02-04T21:35:47.197Z,2.38
2023-02-04T21:38:25.154Z,2.22
2023-02-04T21:40:59.548Z,1.50
2023-02-04T21:43:30.390Z,2.58
2023-02-04T21:45:59.038Z,1.80
2023-02-04T21:48:27.834Z,1.92
2023-02-04T21:50:57.522Z,1.90
2023-02-04T21:53:26.966Z,2.10
2023-02-04T21:55:54.681Z,2.05
2023-02-04T21:58:24.182Z,1.85
2023-02-04T22:00:51.712Z,2.30
2023-02-04T22:03:22.215Z,2.83
2023-02-04T22:05:49.902Z,1.83
2023-02-04T22:08:17.497Z,1.98
2023-02-04T22:10:45.016Z,2.13
2023-02-04T22:13:13.007Z,2.15
2023-02-04T22:15:41.916Z,2.17
2023-02-04T22:18:12.761Z,2.22
2023-02-04T22:20:40.733Z,2.22
2023-02-04T22:23:08.549Z,2.33
2023-02-04T22:25:36.310Z,2.55
2023-02-04T22:28:07.074Z,2.00
2023-02-04T22:30:38.355Z,2.88
2023-02-04T22:33:16.133Z,3.10
2023-02-04T22:35:46.034Z,3.05
2023-02-04T22:38:13.715Z,2.90
2023-02-04T22:40:43.013Z,2.63
2023-02-04T22:43:10.635Z,2.53
2023-02-04T22:45:41.358Z,2.55
2023-02-04T22:48:13.889Z,2.30
2023-02-04T22:50:41.734Z,2.42
2023-02-04T22:53:12.118Z,2.50
2023-02-04T22:55:40.023Z,2.83
2023-02-04T22:58:08.001Z,1.98
2023-02-04T23:00:35.803Z,2.30
2023-02-04T23:03:03.743Z,2.17
2023-02-04T23:05:33.114Z,2.83
2023-02-04T23:08:01.013Z,2.72
2023-02-04T23:10:28.814Z,2.63
2023-02-04T23:12:56.938Z,2.78
2023-02-04T23:15:24.655Z,3.15
2023-02-04T23:17:55.555Z,3.20
2023-02-04T23:20:23.425Z,3.15
2023-02-04T23:23:02.455Z,3.47
2023-02-04T23:25:30.449Z,3.38
2023-02-04T23:28:04.176Z,2.63
2023-02-04T23:30:32.377Z,3.05
2023-02-04T23:33:00.136Z,2.53
2023-02-04T23:35:27.956Z,3.03
2023-02-04T23:38:01.815Z,2.55
2023-02-04T23:42:57.095Z,2.38
2023-02-04T23:45:26.676Z,2.58
2023-02-04T23:47:54.259Z,2.28
2023-02-04T23:50:21.817Z,2.83
2023-02-04T23:52:49.309Z,2.13
2023-02-04T23:55:18.716Z,2.33
2023-02-04T23:57:49.532Z,2.85
